sensor_id;sensor_type;location;lat;lon;timestamp;P1;durP1;ratioP1;P2;durP2;ratioP2
43146;SDS011;28752;48.266;7.402;2023-07-30T00:00:26;3.67;;;1.80;;
43146;SDS011;28752;48.266;7.402;2023-07-30T00:02:51;4.20;;;1.75;;
43146;SDS011;28752;48.266;7.402;2023-07-30T00:05:17;6.67;;;2.23;;
43146;SDS011;28752;48.266;7.402;2023-07-30T00:07:43;4.80;;;2.30;;
43146;SDS011;28752;48.266;7.402;2023-07-30T00:10:08;5.13;;;2.33;;
43146;SDS011;28752;48.266;7.402;2023-07-30T00:12:34;3.65;;;1.95;;
43146;SDS011;28752;48.266;7.402;2023-07-30T00:14:59;4.67;;;2.10;;
43146;SDS011;28752;48.266;7.402;2023-07-30T00:17:25;5.23;;;1.87;;
43146;SDS011;28752;48.266;7.402;2023-07-30T00:19:50;5.60;;;2.00;;
43146;SDS011;28752;48.266;7.402;2023-07-30T00:22:16;4.35;;;1.80;;
43146;SDS011;28752;48.266;7.402;2023-07-30T00:24:41;4.00;;;1.73;;
43146;SDS011;28752;48.266;7.402;2023-07-30T00:27:06;4.00;;;1.87;;
43146;SDS011;28752;48.266;7.402;2023-07-30T00:29:31;4.40;;;2.00;;
43146;SDS011;28752;48.266;7.402;2023-07-30T00:31:57;4.17;;;2.00;;
43146;SDS011;28752;48.266;7.402;2023-07-30T00:34:22;4.80;;;2.17;;
43146;SDS011;28752;48.266;7.402;2023-07-30T00:36:48;4.25;;;2.05;;
43146;SDS011;28752;48.266;7.402;2023-07-30T00:39:13;4.53;;;2.07;;
43146;SDS011;28752;48.266;7.402;2023-07-30T00:41:38;4.73;;;2.03;;
43146;SDS011;28752;48.266;7.402;2023-07-30T00:44:04;5.60;;;2.30;;
43146;SDS011;28752;48.266;7.402;2023-07-30T00:46:29;5.03;;;2.38;;
43146;SDS011;28752;48.266;7.402;2023-07-30T00:51:20;4.13;;;1.60;;
43146;SDS011;28752;48.266;7.402;2023-07-30T00:53:46;4.80;;;1.90;;
43146;SDS011;28752;48.266;7.402;2023-07-30T00:56:11;5.63;;;2.17;;
43146;SDS011;28752;48.266;7.402;2023-07-30T00:58:37;3.42;;;1.63;;
43146;SDS011;28752;48.266;7.402;2023-07-30T01:01:02;3.77;;;1.73;;
43146;SDS011;28752;48.266;7.402;2023-07-30T01:03:28;3.73;;;1.73;;
43146;SDS011;28752;48.266;7.402;2023-07-30T01:05:53;3.67;;;1.90;;
43146;SDS011;28752;48.266;7.402;2023-07-30T01:08:19;3.78;;;1.92;;
43146;SDS011;28752;48.266;7.402;2023-07-30T01:10:44;6.10;;;2.05;;
43146;SDS011;28752;48.266;7.402;2023-07-30T01:13:10;5.55;;;1.83;;
43146;SDS011;28752;48.266;7.402;2023-07-30T01:15:37;4.43;;;2.20;;
43146;SDS011;28752;48.266;7.402;2023-07-30T01:18:03;5.78;;;2.30;;
43146;SDS011;28752;48.266;7.402;2023-07-30T01:20:31;5.68;;;1.98;;
43146;SDS011;28752;48.266;7.402;2023-07-30T01:23:00;4.03;;;1.88;;
43146;SDS011;28752;48.266;7.402;2023-07-30T01:25:27;4.57;;;1.63;;
43146;SDS011;28752;48.266;7.402;2023-07-30T01:27:56;4.63;;;1.90;;
43146;SDS011;28752;48.266;7.402;2023-07-30T01:30:27;4.60;;;2.08;;
43146;SDS011;28752;48.266;7.402;2023-07-30T01:32:55;2.97;;;1.70;;
43146;SDS011;28752;48.266;7.402;2023-07-30T01:35:21;3.10;;;1.30;;
43146;SDS011;28752;48.266;7.402;2023-07-30T01:37:51;3.05;;;1.50;;
43146;SDS011;28752;48.266;7.402;2023-07-30T01:40:16;2.97;;;1.40;;
43146;SDS011;28752;48.266;7.402;2023-07-30T01:42:42;3.25;;;1.60;;
43146;SDS011;28752;48.266;7.402;2023-07-30T01:45:08;2.70;;;1.40;;
43146;SDS011;28752;48.266;7.402;2023-07-30T01:47:33;2.90;;;1.50;;
43146;SDS011;28752;48.266;7.402;2023-07-30T01:49:58;3.17;;;1.40;;
43146;SDS011;28752;48.266;7.402;2023-07-30T01:52:24;3.22;;;1.38;;
43146;SDS011;28752;48.266;7.402;2023-07-30T01:54:50;2.67;;;1.13;;
43146;SDS011;28752;48.266;7.402;2023-07-30T01:57:16;4.07;;;1.42;;
43146;SDS011;28752;48.266;7.402;2023-07-30T01:59:41;3.07;;;1.40;;
43146;SDS011;28752;48.266;7.402;2023-07-30T02:02:06;2.93;;;1.30;;
43146;SDS011;28752;48.266;7.402;2023-07-30T02:04:32;5.40;;;1.80;;
43146;SDS011;28752;48.266;7.402;2023-07-30T02:06:58;3.88;;;1.48;;
43146;SDS011;28752;48.266;7.402;2023-07-30T02:09:23;3.57;;;1.30;;
43146;SDS011;28752;48.266;7.402;2023-07-30T02:11:49;3.33;;;1.37;;
43146;SDS011;28752;48.266;7.402;2023-07-30T02:14:14;4.77;;;1.53;;
43146;SDS011;28752;48.266;7.402;2023-07-30T02:16:39;3.80;;;1.70;;
43146;SDS011;28752;48.266;7.402;2023-07-30T02:19:04;4.00;;;1.67;;
43146;SDS011;28752;48.266;7.402;2023-07-30T02:21:30;4.50;;;2.10;;
43146;SDS011;28752;48.266;7.402;2023-07-30T02:23:57;3.58;;;1.80;;
43146;SDS011;28752;48.266;7.402;2023-07-30T02:26:24;3.55;;;1.80;;
43146;SDS011;28752;48.266;7.402;2023-07-30T02:28:49;7.33;;;1.77;;
43146;SDS011;28752;48.266;7.402;2023-07-30T02:31:14;3.47;;;1.60;;
43146;SDS011;28752;48.266;7.402;2023-07-30T02:33:39;4.33;;;1.90;;
43146;SDS011;28752;48.266;7.402;2023-07-30T02:36:05;4.70;;;2.00;;
43146;SDS011;28752;48.266;7.402;2023-07-30T02:38:30;5.97;;;1.67;;
43146;SDS011;28752;48.266;7.402;2023-07-30T02:40:55;2.73;;;1.40;;
43146;SDS011;28752;48.266;7.402;2023-07-30T02:43:21;4.60;;;1.90;;
43146;SDS011;28752;48.266;7.402;2023-07-30T02:45:47;3.47;;;1.60;;
43146;SDS011;28752;48.266;7.402;2023-07-30T02:48:12;3.60;;;1.60;;
43146;SDS011;28752;48.266;7.402;2023-07-30T02:50:38;3.43;;;1.83;;
43146;SDS011;28752;48.266;7.402;2023-07-30T02:53:03;3.67;;;1.73;;
43146;SDS011;28752;48.266;7.402;2023-07-30T02:55:28;3.53;;;1.73;;
43146;SDS011;28752;48.266;7.402;2023-07-30T02:57:54;3.23;;;1.70;;
43146;SDS011;28752;48.266;7.402;2023-07-30T03:00:19;4.03;;;1.87;;
43146;SDS011;28752;48.266;7.402;2023-07-30T03:02:44;4.40;;;1.60;;
43146;SDS011;28752;48.266;7.402;2023-07-30T03:05:10;3.50;;;1.90;;
43146;SDS011;28752;48.266;7.402;2023-07-30T03:07:35;3.42;;;1.63;;
43146;SDS011;28752;48.266;7.402;2023-07-30T03:10:01;3.35;;;1.88;;
43146;SDS011;28752;48.266;7.402;2023-07-30T03:12:26;3.77;;;1.40;;
43146;SDS011;28752;48.266;7.402;2023-07-30T03:14:51;3.30;;;1.50;;
43146;SDS011;28752;48.266;7.402;2023-07-30T03:17:17;4.50;;;1.60;;
43146;SDS011;28752;48.266;7.402;2023-07-30T03:19:42;4.30;;;1.50;;
43146;SDS011;28752;48.266;7.402;2023-07-30T03:22:07;3.57;;;1.80;;
43146;SDS011;28752;48.266;7.402;2023-07-30T03:24:33;3.77;;;1.53;;
43146;SDS011;28752;48.266;7.402;2023-07-30T03:26:58;5.17;;;2.33;;
43146;SDS011;28752;48.266;7.402;2023-07-30T03:29:23;4.63;;;2.07;;
43146;SDS011;28752;48.266;7.402;2023-07-30T03:31:49;3.63;;;1.80;;
43146;SDS011;28752;48.266;7.402;2023-07-30T03:34:14;3.63;;;1.80;;
43146;SDS011;28752;48.266;7.402;2023-07-30T03:36:39;3.70;;;1.60;;
43146;SDS011;28752;48.266;7.402;2023-07-30T03:39:05;5.70;;;2.17;;
43146;SDS011;28752;48.266;7.402;2023-07-30T03:41:31;4.88;;;2.05;;
43146;SDS011;28752;48.266;7.402;2023-07-30T03:43:56;2.93;;;1.50;;
43146;SDS011;28752;48.266;7.402;2023-07-30T03:46:21;3.73;;;1.90;;
43146;SDS011;28752;48.266;7.402;2023-07-30T03:48:47;3.20;;;1.70;;
43146;SDS011;28752;48.266;7.402;2023-07-30T03:51:12;3.73;;;2.00;;
43146;SDS011;28752;48.266;7.402;2023-07-30T03:53:37;4.05;;;1.95;;
43146;SDS011;28752;48.266;7.402;2023-07-30T03:56:03;6.20;;;2.10;;
43146;SDS011;28752;48.266;7.402;2023-07-30T03:58:28;3.63;;;1.73;;
43146;SDS011;28752;48.266;7.402;2023-07-30T04:00:55;4.90;;;1.90;;
43146;SDS011;28752;48.266;7.402;2023-07-30T04:03:21;4.15;;;1.90;;
43146;SDS011;28752;48.266;7.402;2023-07-30T04:05:46;4.47;;;2.00;;
43146;SDS011;28752;48.266;7.402;2023-07-30T04:08:11;4.67;;;2.77;;
43146;SDS011;28752;48.266;7.402;2023-07-30T04:10:37;4.07;;;2.10;;
43146;SDS011;28752;48.266;7.402;2023-07-30T04:13:02;5.87;;;2.33;;
43146;SDS011;28752;48.266;7.402;2023-07-30T04:15:27;3.90;;;1.90;;
43146;SDS011;28752;48.266;7.402;2023-07-30T04:17:53;3.33;;;1.90;;
43146;SDS011;28752;48.266;7.402;2023-07-30T04:20:18;3.92;;;1.90;;
43146;SDS011;28752;48.266;7.402;2023-07-30T04:22:44;3.60;;;1.83;;
43146;SDS011;28752;48.266;7.402;2023-07-30T04:25:09;4.30;;;1.70;;
43146;SDS011;28752;48.266;7.402;2023-07-30T04:27:38;4.95;;;1.83;;
43146;SDS011;28752;48.266;7.402;2023-07-30T04:30:06;3.80;;;1.67;;
43146;SDS011;28752;48.266;7.402;2023-07-30T04:32:32;3.67;;;1.85;;
43146;SDS011;28752;48.266;7.402;2023-07-30T04:34:57;5.60;;;1.70;;
43146;SDS011;28752;48.266;7.402;2023-07-30T04:37:22;3.40;;;1.53;;
43146;SDS011;28752;48.266;7.402;2023-07-30T04:39:48;3.53;;;1.60;;
43146;SDS011;28752;48.266;7.402;2023-07-30T04:42:14;3.10;;;1.58;;
43146;SDS011;28752;48.266;7.402;2023-07-30T04:44:40;3.42;;;1.67;;
43146;SDS011;28752;48.266;7.402;2023-07-30T04:47:05;3.60;;;1.50;;
43146;SDS011;28752;48.266;7.402;2023-07-30T04:49:32;3.63;;;1.52;;
43146;SDS011;28752;48.266;7.402;2023-07-30T04:51:57;2.63;;;1.58;;
43146;SDS011;28752;48.266;7.402;2023-07-30T04:54:22;3.73;;;1.93;;
43146;SDS011;28752;48.266;7.402;2023-07-30T04:56:48;5.77;;;2.07;;
43146;SDS011;28752;48.266;7.402;2023-07-30T04:59:13;3.80;;;1.70;;
43146;SDS011;28752;48.266;7.402;2023-07-30T05:01:38;3.00;;;1.40;;
43146;SDS011;28752;48.266;7.402;2023-07-30T05:04:04;4.07;;;1.40;;
43146;SDS011;28752;48.266;7.402;2023-07-30T05:06:29;3.33;;;1.53;;
43146;SDS011;28752;48.266;7.402;2023-07-30T05:08:54;4.87;;;1.70;;
43146;SDS011;28752;48.266;7.402;2023-07-30T05:11:20;5.07;;;1.63;;
43146;SDS011;28752;48.266;7.402;2023-07-30T05:13:45;4.20;;;1.60;;
43146;SDS011;28752;48.266;7.402;2023-07-30T05:16:11;3.53;;;1.73;;
43146;SDS011;28752;48.266;7.402;2023-07-30T05:18:36;3.30;;;1.60;;
43146;SDS011;28752;48.266;7.402;2023-07-30T05:21:01;5.63;;;2.27;;
43146;SDS011;28752;48.266;7.402;2023-07-30T05:23:27;4.53;;;2.13;;
43146;SDS011;28752;48.266;7.402;2023-07-30T05:25:52;4.80;;;2.33;;
43146;SDS011;28752;48.266;7.402;2023-07-30T05:28:17;4.53;;;2.10;;
43146;SDS011;28752;48.266;7.402;2023-07-30T05:30:43;4.30;;;2.03;;
43146;SDS011;28752;48.266;7.402;2023-07-30T05:33:09;4.00;;;2.08;;
43146;SDS011;28752;48.266;7.402;2023-07-30T05:35:34;4.37;;;2.30;;
43146;SDS011;28752;48.266;7.402;2023-07-30T05:37:59;5.38;;;2.08;;
43146;SDS011;28752;48.266;7.402;2023-07-30T05:40:25;3.63;;;1.70;;
43146;SDS011;28752;48.266;7.402;2023-07-30T05:42:50;2.60;;;1.37;;
43146;SDS011;28752;48.266;7.402;2023-07-30T05:45:16;3.67;;;1.40;;
43146;SDS011;28752;48.266;7.402;2023-07-30T05:47:41;2.27;;;1.10;;
43146;SDS011;28752;48.266;7.402;2023-07-30T05:50:06;2.60;;;1.20;;
43146;SDS011;28752;48.266;7.402;2023-07-30T05:52:33;2.80;;;1.20;;
43146;SDS011;28752;48.266;7.402;2023-07-30T05:54:59;4.03;;;1.42;;
43146;SDS011;28752;48.266;7.402;2023-07-30T05:57:24;3.77;;;1.70;;
43146;SDS011;28752;48.266;7.402;2023-07-30T05:59:51;4.80;;;2.22;;
43146;SDS011;28752;48.266;7.402;2023-07-30T06:02:17;5.20;;;2.13;;
43146;SDS011;28752;48.266;7.402;2023-07-30T06:04:42;4.20;;;2.47;;
43146;SDS011;28752;48.266;7.402;2023-07-30T06:07:08;3.47;;;1.33;;
43146;SDS011;28752;48.266;7.402;2023-07-30T06:09:33;3.13;;;1.70;;
43146;SDS011;28752;48.266;7.402;2023-07-30T06:11:58;3.20;;;1.25;;
43146;SDS011;28752;48.266;7.402;2023-07-30T06:14:24;2.35;;;1.17;;
43146;SDS011;28752;48.266;7.402;2023-07-30T06:19:16;1.60;;;0.85;;
43146;SDS011;28752;48.266;7.402;2023-07-30T06:21:42;2.88;;;1.02;;
43146;SDS011;28752;48.266;7.402;2023-07-30T06:24:07;2.75;;;1.10;;
43146;SDS011;28752;48.266;7.402;2023-07-30T06:26:32;4.20;;;1.58;;
43146;SDS011;28752;48.266;7.402;2023-07-30T06:28:58;2.27;;;0.80;;
43146;SDS011;28752;48.266;7.402;2023-07-30T06:31:23;2.50;;;0.93;;
43146;SDS011;28752;48.266;7.402;2023-07-30T06:33:49;2.45;;;1.15;;
43146;SDS011;28752;48.266;7.402;2023-07-30T06:36:14;3.90;;;1.50;;
43146;SDS011;28752;48.266;7.402;2023-07-30T06:38:39;3.58;;;1.00;;
43146;SDS011;28752;48.266;7.402;2023-07-30T06:41:05;1.83;;;0.98;;
43146;SDS011;28752;48.266;7.402;2023-07-30T06:45:55;2.60;;;1.30;;
43146;SDS011;28752;48.266;7.402;2023-07-30T06:53:11;2.47;;;1.07;;
43146;SDS011;28752;48.266;7.402;2023-07-30T06:58:02;2.13;;;1.00;;
43146;SDS011;28752;48.266;7.402;2023-07-30T07:00:27;1.80;;;0.90;;
43146;SDS011;28752;48.266;7.402;2023-07-30T07:02:52;2.15;;;0.90;;
43146;SDS011;28752;48.266;7.402;2023-07-30T07:05:18;2.33;;;1.05;;
43146;SDS011;28752;48.266;7.402;2023-07-30T07:07:43;2.13;;;1.00;;
43146;SDS011;28752;48.266;7.402;2023-07-30T07:10:08;2.17;;;0.97;;
43146;SDS011;28752;48.266;7.402;2023-07-30T07:12:35;4.38;;;1.30;;
43146;SDS011;28752;48.266;7.402;2023-07-30T07:15:02;2.10;;;1.00;;
43146;SDS011;28752;48.266;7.402;2023-07-30T07:17:28;2.25;;;1.00;;
43146;SDS011;28752;48.266;7.402;2023-07-30T07:19:53;2.13;;;1.00;;
43146;SDS011;28752;48.266;7.402;2023-07-30T07:22:18;1.93;;;0.90;;
43146;SDS011;28752;48.266;7.402;2023-07-30T07:24:44;2.80;;;1.27;;
43146;SDS011;28752;48.266;7.402;2023-07-30T07:27:10;2.47;;;1.10;;
43146;SDS011;28752;48.266;7.402;2023-07-30T07:29:35;2.45;;;0.95;;
43146;SDS011;28752;48.266;7.402;2023-07-30T07:32:01;1.73;;;0.90;;
43146;SDS011;28752;48.266;7.402;2023-07-30T07:34:26;2.60;;;1.13;;
43146;SDS011;28752;48.266;7.402;2023-07-30T07:36:51;2.22;;;1.10;;
43146;SDS011;28752;48.266;7.402;2023-07-30T07:39:17;2.45;;;1.00;;
43146;SDS011;28752;48.266;7.402;2023-07-30T07:41:43;2.95;;;1.02;;
43146;SDS011;28752;48.266;7.402;2023-07-30T07:44:08;2.25;;;1.02;;
43146;SDS011;28752;48.266;7.402;2023-07-30T07:46:34;2.47;;;1.10;;
43146;SDS011;28752;48.266;7.402;2023-07-30T07:48:59;2.77;;;1.23;;
43146;SDS011;28752;48.266;7.402;2023-07-30T07:51:25;3.00;;;1.07;;
43146;SDS011;28752;48.266;7.402;2023-07-30T07:53:50;1.90;;;0.93;;
43146;SDS011;28752;48.266;7.402;2023-07-30T07:56:16;2.25;;;1.00;;
43146;SDS011;28752;48.266;7.402;2023-07-30T07:58:41;2.10;;;1.17;;
43146;SDS011;28752;48.266;7.402;2023-07-30T08:01:08;2.25;;;1.17;;
43146;SDS011;28752;48.266;7.402;2023-07-30T08:03:34;2.15;;;1.00;;
43146;SDS011;28752;48.266;7.402;2023-07-30T08:05:59;3.40;;;1.10;;
43146;SDS011;28752;48.266;7.402;2023-07-30T08:08:25;2.47;;;0.98;;
43146;SDS011;28752;48.266;7.402;2023-07-30T08:10:51;3.90;;;1.40;;
43146;SDS011;28752;48.266;7.402;2023-07-30T08:13:17;2.53;;;1.10;;
43146;SDS011;28752;48.266;7.402;2023-07-30T08:15:42;2.22;;;1.05;;
43146;SDS011;28752;48.266;7.402;2023-07-30T08:18:08;2.67;;;1.10;;
43146;SDS011;28752;48.266;7.402;2023-07-30T08:20:33;2.63;;;1.20;;
43146;SDS011;28752;48.266;7.402;2023-07-30T08:22:58;3.58;;;1.10;;
43146;SDS011;28752;48.266;7.402;2023-07-30T08:25:24;2.03;;;1.03;;
43146;SDS011;28752;48.266;7.402;2023-07-30T08:27:49;3.63;;;1.17;;
43146;SDS011;28752;48.266;7.402;2023-07-30T08:30:14;2.40;;;1.30;;
43146;SDS011;28752;48.266;7.402;2023-07-30T08:32:40;1.92;;;1.10;;
43146;SDS011;28752;48.266;7.402;2023-07-30T08:35:08;2.30;;;1.10;;
43146;SDS011;28752;48.266;7.402;2023-07-30T08:37:33;2.38;;;1.00;;
43146;SDS011;28752;48.266;7.402;2023-07-30T08:39:59;2.55;;;1.20;;
43146;SDS011;28752;48.266;7.402;2023-07-30T08:42:24;2.83;;;1.20;;
43146;SDS011;28752;48.266;7.402;2023-07-30T08:44:49;2.58;;;1.05;;
43146;SDS011;28752;48.266;7.402;2023-07-30T08:47:16;3.70;;;1.42;;
43146;SDS011;28752;48.266;7.402;2023-07-30T08:49:41;3.65;;;1.27;;
43146;SDS011;28752;48.266;7.402;2023-07-30T08:52:07;2.38;;;0.95;;
43146;SDS011;28752;48.266;7.402;2023-07-30T08:54:34;2.92;;;1.10;;
43146;SDS011;28752;48.266;7.402;2023-07-30T08:57:02;2.70;;;1.20;;
43146;SDS011;28752;48.266;7.402;2023-07-30T09:01:56;2.55;;;1.20;;
43146;SDS011;28752;48.266;7.402;2023-07-30T09:04:23;3.28;;;1.50;;
43146;SDS011;28752;48.266;7.402;2023-07-30T09:06:49;3.75;;;1.40;;
43146;SDS011;28752;48.266;7.402;2023-07-30T09:09:15;3.22;;;1.70;;
43146;SDS011;28752;48.266;7.402;2023-07-30T09:14:06;3.50;;;1.40;;
43146;SDS011;28752;48.266;7.402;2023-07-30T09:16:32;2.60;;;1.30;;
43146;SDS011;28752;48.266;7.402;2023-07-30T09:18:58;3.40;;;1.40;;
43146;SDS011;28752;48.266;7.402;2023-07-30T09:21:33;3.73;;;1.50;;
43146;SDS011;28752;48.266;7.402;2023-07-30T09:24:02;3.28;;;1.80;;
43146;SDS011;28752;48.266;7.402;2023-07-30T09:26:44;3.78;;;1.77;;
43146;SDS011;28752;48.266;7.402;2023-07-30T09:29:11;4.53;;;1.88;;
43146;SDS011;28752;48.266;7.402;2023-07-30T09:31:46;2.85;;;1.50;;
43146;SDS011;28752;48.266;7.402;2023-07-30T09:34:14;4.10;;;1.50;;
43146;SDS011;28752;48.266;7.402;2023-07-30T09:36:41;4.32;;;1.65;;
43146;SDS011;28752;48.266;7.402;2023-07-30T09:39:22;3.25;;;1.70;;
43146;SDS011;28752;48.266;7.402;2023-07-30T09:41:49;3.58;;;1.25;;
43146;SDS011;28752;48.266;7.402;2023-07-30T09:44:17;3.00;;;1.30;;
43146;SDS011;28752;48.266;7.402;2023-07-30T09:46:44;4.45;;;1.73;;
43146;SDS011;28752;48.266;7.402;2023-07-30T09:49:11;3.40;;;1.48;;
43146;SDS011;28752;48.266;7.402;2023-07-30T09:51:37;4.88;;;1.60;;
43146;SDS011;28752;48.266;7.402;2023-07-30T09:54:03;4.90;;;1.80;;
43146;SDS011;28752;48.266;7.402;2023-07-30T09:56:31;2.92;;;1.52;;
43146;SDS011;28752;48.266;7.402;2023-07-30T09:58:57;2.90;;;1.60;;
43146;SDS011;28752;48.266;7.402;2023-07-30T10:01:22;4.20;;;1.57;;
43146;SDS011;28752;48.266;7.402;2023-07-30T10:03:57;5.15;;;1.70;;
43146;SDS011;28752;48.266;7.402;2023-07-30T10:06:27;4.10;;;1.50;;
43146;SDS011;28752;48.266;7.402;2023-07-30T10:08:56;4.45;;;1.77;;
43146;SDS011;28752;48.266;7.402;2023-07-30T10:11:25;3.85;;;1.90;;
43146;SDS011;28752;48.266;7.402;2023-07-30T10:13:52;3.10;;;1.45;;
43146;SDS011;28752;48.266;7.402;2023-07-30T10:16:18;3.65;;;1.90;;
43146;SDS011;28752;48.266;7.402;2023-07-30T10:18:49;3.83;;;1.60;;
43146;SDS011;28752;48.266;7.402;2023-07-30T10:21:22;3.63;;;1.67;;
43146;SDS011;28752;48.266;7.402;2023-07-30T10:24:06;3.03;;;1.50;;
43146;SDS011;28752;48.266;7.402;2023-07-30T10:26:34;4.90;;;1.65;;
43146;SDS011;28752;48.266;7.402;2023-07-30T10:29:11;4.40;;;1.60;;
43146;SDS011;28752;48.266;7.402;2023-07-30T10:31:41;3.63;;;1.67;;
43146;SDS011;28752;48.266;7.402;2023-07-30T10:34:07;4.00;;;1.38;;
43146;SDS011;28752;48.266;7.402;2023-07-30T10:36:43;4.05;;;1.85;;
43146;SDS011;28752;48.266;7.402;2023-07-30T10:39:26;3.58;;;1.77;;
43146;SDS011;28752;48.266;7.402;2023-07-30T10:41:54;2.88;;;1.40;;
43146;SDS011;28752;48.266;7.402;2023-07-30T10:44:27;3.97;;;1.45;;
43146;SDS011;28752;48.266;7.402;2023-07-30T10:46:54;5.03;;;1.85;;
43146;SDS011;28752;48.266;7.402;2023-07-30T10:49:21;2.90;;;1.35;;
43146;SDS011;28752;48.266;7.402;2023-07-30T10:51:46;5.10;;;1.60;;
43146;SDS011;28752;48.266;7.402;2023-07-30T10:54:12;4.57;;;1.80;;
43146;SDS011;28752;48.266;7.402;2023-07-30T10:56:37;2.97;;;1.55;;
43146;SDS011;28752;48.266;7.402;2023-07-30T11:01:42;3.20;;;1.38;;
43146;SDS011;28752;48.266;7.402;2023-07-30T11:06:46;2.88;;;1.27;;
43146;SDS011;28752;48.266;7.402;2023-07-30T11:09:22;2.70;;;1.33;;
43146;SDS011;28752;48.266;7.402;2023-07-30T11:11:49;3.00;;;1.30;;
43146;SDS011;28752;48.266;7.402;2023-07-30T11:14:17;2.30;;;1.17;;
43146;SDS011;28752;48.266;7.402;2023-07-30T11:16:48;2.80;;;1.23;;
43146;SDS011;28752;48.266;7.402;2023-07-30T11:19:15;2.83;;;1.42;;
43146;SDS011;28752;48.266;7.402;2023-07-30T11:21:44;3.67;;;1.02;;
43146;SDS011;28752;48.266;7.402;2023-07-30T11:24:10;4.57;;;1.17;;
43146;SDS011;28752;48.266;7.402;2023-07-30T11:26:36;3.07;;;1.10;;
43146;SDS011;28752;48.266;7.402;2023-07-30T11:29:01;3.13;;;1.13;;
43146;SDS011;28752;48.266;7.402;2023-07-30T11:31:45;2.13;;;0.90;;
43146;SDS011;28752;48.266;7.402;2023-07-30T11:34:11;2.97;;;1.27;;
43146;SDS011;28752;48.266;7.402;2023-07-30T11:36:38;3.78;;;1.13;;
43146;SDS011;28752;48.266;7.402;2023-07-30T11:39:05;2.25;;;1.10;;
43146;SDS011;28752;48.266;7.402;2023-07-30T11:41:32;3.40;;;1.00;;
43146;SDS011;28752;48.266;7.402;2023-07-30T11:43:57;3.20;;;1.13;;
43146;SDS011;28752;48.266;7.402;2023-07-30T11:46:23;4.13;;;1.45;;
43146;SDS011;28752;48.266;7.402;2023-07-30T11:48:49;2.13;;;0.85;;
43146;SDS011;28752;48.266;7.402;2023-07-30T11:51:23;2.25;;;1.05;;
43146;SDS011;28752;48.266;7.402;2023-07-30T11:53:50;3.97;;;1.13;;
43146;SDS011;28752;48.266;7.402;2023-07-30T11:56:20;3.35;;;1.05;;
43146;SDS011;28752;48.266;7.402;2023-07-30T11:58:48;2.95;;;0.80;;
43146;SDS011;28752;48.266;7.402;2023-07-30T12:01:15;3.35;;;1.05;;
43146;SDS011;28752;48.266;7.402;2023-07-30T12:03:41;3.67;;;1.08;;
43146;SDS011;28752;48.266;7.402;2023-07-30T12:06:08;6.28;;;0.90;;
43146;SDS011;28752;48.266;7.402;2023-07-30T12:08:35;1.38;;;0.70;;
43146;SDS011;28752;48.266;7.402;2023-07-30T12:11:04;2.42;;;0.90;;
43146;SDS011;28752;48.266;7.402;2023-07-30T12:13:30;3.60;;;1.17;;
43146;SDS011;28752;48.266;7.402;2023-07-30T12:18:23;2.65;;;1.10;;
43146;SDS011;28752;48.266;7.402;2023-07-30T12:20:49;2.38;;;1.15;;
43146;SDS011;28752;48.266;7.402;2023-07-30T12:23:16;3.20;;;1.10;;
43146;SDS011;28752;48.266;7.402;2023-07-30T12:25:41;2.78;;;0.90;;
43146;SDS011;28752;48.266;7.402;2023-07-30T12:28:07;2.47;;;0.90;;
43146;SDS011;28752;48.266;7.402;2023-07-30T12:30:32;2.03;;;0.95;;
43146;SDS011;28752;48.266;7.402;2023-07-30T12:32:58;2.67;;;0.85;;
43146;SDS011;28752;48.266;7.402;2023-07-30T12:35:23;2.65;;;0.80;;
43146;SDS011;28752;48.266;7.402;2023-07-30T12:37:49;2.67;;;1.08;;
43146;SDS011;28752;48.266;7.402;2023-07-30T12:40:15;2.50;;;0.90;;
43146;SDS011;28752;48.266;7.402;2023-07-30T12:45:06;3.17;;;1.23;;
43146;SDS011;28752;48.266;7.402;2023-07-30T12:47:32;1.75;;;0.88;;
43146;SDS011;28752;48.266;7.402;2023-07-30T12:50:00;4.28;;;1.00;;
43146;SDS011;28752;48.266;7.402;2023-07-30T12:52:25;3.50;;;1.00;;
43146;SDS011;28752;48.266;7.402;2023-07-30T12:54:51;4.83;;;0.97;;
43146;SDS011;28752;48.266;7.402;2023-07-30T12:57:16;3.97;;;1.20;;
43146;SDS011;28752;48.266;7.402;2023-07-30T12:59:41;3.00;;;0.90;;
43146;SDS011;28752;48.266;7.402;2023-07-30T13:02:07;2.00;;;0.80;;
43146;SDS011;28752;48.266;7.402;2023-07-30T13:04:32;3.53;;;1.10;;
43146;SDS011;28752;48.266;7.402;2023-07-30T13:06:57;5.10;;;1.00;;
43146;SDS011;28752;48.266;7.402;2023-07-30T13:09:22;2.53;;;1.07;;
43146;SDS011;28752;48.266;7.402;2023-07-30T13:11:48;4.45;;;0.90;;
43146;SDS011;28752;48.266;7.402;2023-07-30T13:14:13;3.63;;;0.83;;
43146;SDS011;28752;48.266;7.402;2023-07-30T13:16:38;5.00;;;0.87;;
43146;SDS011;28752;48.266;7.402;2023-07-30T13:19:04;3.53;;;1.00;;
43146;SDS011;28752;48.266;7.402;2023-07-30T13:21:29;3.13;;;0.80;;
43146;SDS011;28752;48.266;7.402;2023-07-30T13:23:54;3.30;;;1.17;;
43146;SDS011;28752;48.266;7.402;2023-07-30T13:26:20;3.37;;;0.80;;
43146;SDS011;28752;48.266;7.402;2023-07-30T13:28:46;3.42;;;0.80;;
43146;SDS011;28752;48.266;7.402;2023-07-30T13:31:11;3.63;;;1.23;;
43146;SDS011;28752;48.266;7.402;2023-07-30T13:33:36;3.50;;;1.02;;
43146;SDS011;28752;48.266;7.402;2023-07-30T13:36:02;2.10;;;0.90;;
43146;SDS011;28752;48.266;7.402;2023-07-30T13:38:28;2.88;;;0.75;;
43146;SDS011;28752;48.266;7.402;2023-07-30T13:40:53;1.92;;;0.80;;
43146;SDS011;28752;48.266;7.402;2023-07-30T13:43:19;2.72;;;0.80;;
43146;SDS011;28752;48.266;7.402;2023-07-30T13:45:44;4.63;;;1.02;;
43146;SDS011;28752;48.266;7.402;2023-07-30T13:48:10;2.92;;;0.60;;
43146;SDS011;28752;48.266;7.402;2023-07-30T13:50:35;4.28;;;1.10;;
43146;SDS011;28752;48.266;7.402;2023-07-30T13:53:00;3.03;;;0.90;;
43146;SDS011;28752;48.266;7.402;2023-07-30T13:55:26;2.10;;;0.80;;
43146;SDS011;28752;48.266;7.402;2023-07-30T13:57:51;2.63;;;0.90;;
43146;SDS011;28752;48.266;7.402;2023-07-30T14:00:16;3.10;;;1.00;;
43146;SDS011;28752;48.266;7.402;2023-07-30T14:02:42;3.22;;;0.88;;
43146;SDS011;28752;48.266;7.402;2023-07-30T14:05:08;3.17;;;0.80;;
43146;SDS011;28752;48.266;7.402;2023-07-30T14:07:34;2.20;;;0.65;;
43146;SDS011;28752;48.266;7.402;2023-07-30T14:10:00;2.35;;;0.77;;
43146;SDS011;28752;48.266;7.402;2023-07-30T14:12:25;2.75;;;0.80;;
43146;SDS011;28752;48.266;7.402;2023-07-30T14:14:51;2.92;;;0.90;;
43146;SDS011;28752;48.266;7.402;2023-07-30T14:17:16;3.50;;;1.03;;
43146;SDS011;28752;48.266;7.402;2023-07-30T14:19:42;2.87;;;0.73;;
43146;SDS011;28752;48.266;7.402;2023-07-30T14:22:07;2.53;;;0.97;;
43146;SDS011;28752;48.266;7.402;2023-07-30T14:24:32;3.03;;;0.90;;
43146;SDS011;28752;48.266;7.402;2023-07-30T14:26:58;2.88;;;0.93;;
43146;SDS011;28752;48.266;7.402;2023-07-30T14:29:23;2.00;;;0.80;;
43146;SDS011;28752;48.266;7.402;2023-07-30T14:31:49;1.85;;;0.70;;
43146;SDS011;28752;48.266;7.402;2023-07-30T14:34:14;3.03;;;1.00;;
43146;SDS011;28752;48.266;7.402;2023-07-30T14:36:39;4.10;;;0.97;;
43146;SDS011;28752;48.266;7.402;2023-07-30T14:39:05;2.43;;;0.67;;
43146;SDS011;28752;48.266;7.402;2023-07-30T14:41:30;2.77;;;0.80;;
43146;SDS011;28752;48.266;7.402;2023-07-30T14:43:55;2.50;;;0.70;;
43146;SDS011;28752;48.266;7.402;2023-07-30T14:46:20;3.33;;;0.60;;
43146;SDS011;28752;48.266;7.402;2023-07-30T14:48:46;1.63;;;0.65;;
43146;SDS011;28752;48.266;7.402;2023-07-30T14:51:11;4.93;;;1.02;;
43146;SDS011;28752;48.266;7.402;2023-07-30T14:53:37;2.70;;;0.73;;
43146;SDS011;28752;48.266;7.402;2023-07-30T14:56:02;4.67;;;0.97;;
43146;SDS011;28752;48.266;7.402;2023-07-30T14:58:28;2.10;;;0.55;;
43146;SDS011;28752;48.266;7.402;2023-07-30T15:00:53;2.92;;;0.88;;
43146;SDS011;28752;48.266;7.402;2023-07-30T15:03:19;1.20;;;0.60;;
43146;SDS011;28752;48.266;7.402;2023-07-30T15:05:44;2.87;;;0.90;;
43146;SDS011;28752;48.266;7.402;2023-07-30T15:08:10;1.75;;;0.77;;
43146;SDS011;28752;48.266;7.402;2023-07-30T15:10:35;2.27;;;1.10;;